CheckWX is a tool to help pilots better visualize weather data.  It is not intended as a substitute for an official pre-flight weather briefing.

21:23:34 UTC

KCEY METAR
Kyle-Oakley Field Airport
Murray, Kentucky, USA
Current

3 hours ago

KCEY 221835Z AUTO 24014KT 10SM CLR 17/04 A2997 RMK AO1
Observed
Oct-22 @ 18:35 UTC
Wind
  • 240° at 14 KTS
Visibility
10 SM
Flight Rules
VFR
Cloud Levels
  • Clear skies
Temperature
17°C / 63°F
Dewpoint
C / 39°F
Humidity
42%
Altimeter
29.97" Hg
Pressure
1014.92 hPa
Previous

3 hours ago

KCEY 221815Z AUTO 21014G19KT 10SM CLR 17/04 A2996 RMK AO1
Observed
Oct-22 @ 18:15 UTC
Wind
  • 210° at 14 KTS
  • Gusting to 19 KTS
Visibility
10 SM
Flight Rules
VFR
Cloud Levels
  • Clear skies
Temperature
17°C / 63°F
Dewpoint
C / 39°F
Humidity
42%
Altimeter
29.96" Hg
Pressure
1014.52 hPa
Previous

3 hours ago

KCEY 221755Z AUTO 24012G21KT 10SM CLR 17/04 A2997 RMK AO1
Observed
Oct-22 @ 17:55 UTC
Wind
  • 240° at 12 KTS
  • Gusting to 21 KTS
Visibility
10 SM
Flight Rules
VFR
Cloud Levels
  • Clear skies
Temperature
17°C / 63°F
Dewpoint
C / 39°F
Humidity
42%
Altimeter
29.97" Hg
Pressure
1014.92 hPa